Terminal Aerodrome Forecast
Issued by NWS Sioux Falls, SD

Home | Current Version | Previous Version | Text Only | Print | Product List | Glossary On
Versions: 1 2 3 4 5 6 7 8 9 10 11 12 13 14 15 16 17
396
FTUS43 KFSD 251722
TAFFSD
TAF
KFSD 251722Z 2518/2618 18025G29KT P6SM SCT250
     FM252100 18020G28KT P6SM BKN110
     FM252300 17011KT P6SM BKN090
     FM261000 23005KT P6SM BKN050
     FM261100 29005KT P6SM BKN070
     FM261300 31007KT P6SM SCT200=

USA.gov is the U.S. government's official web portal to all federal, state and local government web resources and services.